sensor_id;sensor_type;location;lat;lon;timestamp;temperature;humidity
16503;DHT22;53067;48.114;11.694;2022-12-10T00:01:35;3.60;84.70
16503;DHT22;53067;48.114;11.694;2022-12-10T00:04:04;3.50;84.60
16503;DHT22;53067;48.114;11.694;2022-12-10T00:06:33;3.50;84.70
16503;DHT22;53067;48.114;11.694;2022-12-10T00:09:03;3.60;84.70
16503;DHT22;53067;48.114;11.694;2022-12-10T00:11:32;3.60;84.70
16503;DHT22;53067;48.114;11.694;2022-12-10T00:13:59;3.60;84.70
16503;DHT22;53067;48.114;11.694;2022-12-10T00:16:28;3.60;84.60
16503;DHT22;53067;48.114;11.694;2022-12-10T00:18:57;3.50;84.60
16503;DHT22;53067;48.114;11.694;2022-12-10T00:21:29;3.30;84.90
16503;DHT22;53067;48.114;11.694;2022-12-10T00:23:58;3.40;85.40
16503;DHT22;53067;48.114;11.694;2022-12-10T00:26:29;3.40;85.40
16503;DHT22;53067;48.114;11.694;2022-12-10T00:28:57;3.50;85.40
16503;DHT22;53067;48.114;11.694;2022-12-10T00:31:30;3.50;85.20
16503;DHT22;53067;48.114;11.694;2022-12-10T00:34:02;3.50;84.80
16503;DHT22;53067;48.114;11.694;2022-12-10T00:36:36;3.50;84.70
16503;DHT22;53067;48.114;11.694;2022-12-10T00:39:03;3.50;84.70
16503;DHT22;53067;48.114;11.694;2022-12-10T00:41:31;3.60;84.80
16503;DHT22;53067;48.114;11.694;2022-12-10T00:43:58;3.60;84.70
16503;DHT22;53067;48.114;11.694;2022-12-10T00:46:26;3.60;84.70
16503;DHT22;53067;48.114;11.694;2022-12-10T00:48:54;3.70;84.50
16503;DHT22;53067;48.114;11.694;2022-12-10T00:51:24;3.70;84.60
16503;DHT22;53067;48.114;11.694;2022-12-10T00:53:53;3.70;84.60
16503;DHT22;53067;48.114;11.694;2022-12-10T00:56:24;3.70;84.30
16503;DHT22;53067;48.114;11.694;2022-12-10T00:58:52;3.70;84.30
16503;DHT22;53067;48.114;11.694;2022-12-10T01:01:25;3.80;84.20
16503;DHT22;53067;48.114;11.694;2022-12-10T01:03:56;3.70;84.00
16503;DHT22;53067;48.114;11.694;2022-12-10T01:06:32;3.80;84.00
16503;DHT22;53067;48.114;11.694;2022-12-10T01:09:07;3.70;84.00
16503;DHT22;53067;48.114;11.694;2022-12-10T01:11:34;3.80;84.00
16503;DHT22;53067;48.114;11.694;2022-12-10T01:14:00;3.70;84.20
16503;DHT22;53067;48.114;11.694;2022-12-10T01:16:28;3.70;84.10
16503;DHT22;53067;48.114;11.694;2022-12-10T01:18:57;3.70;84.30
16503;DHT22;53067;48.114;11.694;2022-12-10T01:21:26;3.70;84.20
16503;DHT22;53067;48.114;11.694;2022-12-10T01:23:55;3.70;84.30
16503;DHT22;53067;48.114;11.694;2022-12-10T01:26:25;3.70;84.30
16503;DHT22;53067;48.114;11.694;2022-12-10T01:28:54;3.80;84.60
16503;DHT22;53067;48.114;11.694;2022-12-10T01:31:24;3.80;84.20
16503;DHT22;53067;48.114;11.694;2022-12-10T01:33:52;3.70;84.60
16503;DHT22;53067;48.114;11.694;2022-12-10T01:36:30;3.80;84.70
16503;DHT22;53067;48.114;11.694;2022-12-10T01:38:53;3.80;84.60
16503;DHT22;53067;48.114;11.694;2022-12-10T01:41:24;3.80;84.60
16503;DHT22;53067;48.114;11.694;2022-12-10T01:46:27;3.80;84.50
16503;DHT22;53067;48.114;11.694;2022-12-10T01:48:55;3.80;84.50
16503;DHT22;53067;48.114;11.694;2022-12-10T01:51:25;3.80;84.40
16503;DHT22;53067;48.114;11.694;2022-12-10T01:53:53;3.80;84.50
16503;DHT22;53067;48.114;11.694;2022-12-10T01:56:21;3.80;84.60
16503;DHT22;53067;48.114;11.694;2022-12-10T01:58:51;3.80;84.70
16503;DHT22;53067;48.114;11.694;2022-12-10T02:01:29;3.80;84.90
16503;DHT22;53067;48.114;11.694;2022-12-10T02:06:58;3.80;85.10
16503;DHT22;53067;48.114;11.694;2022-12-10T02:12:36;3.70;85.20
16503;DHT22;53067;48.114;11.694;2022-12-10T02:15:19;3.70;85.30
16503;DHT22;53067;48.114;11.694;2022-12-10T02:20:26;3.70;85.50
16503;DHT22;53067;48.114;11.694;2022-12-10T02:23:16;3.70;85.60
16503;DHT22;53067;48.114;11.694;2022-12-10T02:28:42;3.70;85.60
16503;DHT22;53067;48.114;11.694;2022-12-10T02:31:10;3.70;85.60
16503;DHT22;53067;48.114;11.694;2022-12-10T02:33:42;3.70;85.60
16503;DHT22;53067;48.114;11.694;2022-12-10T02:36:10;3.70;85.80
16503;DHT22;53067;48.114;11.694;2022-12-10T02:38:40;3.70;85.70
16503;DHT22;53067;48.114;11.694;2022-12-10T02:41:21;3.80;85.70
16503;DHT22;53067;48.114;11.694;2022-12-10T02:43:51;3.80;85.60
16503;DHT22;53067;48.114;11.694;2022-12-10T02:46:19;3.80;85.60
16503;DHT22;53067;48.114;11.694;2022-12-10T02:48:48;3.80;85.60
16503;DHT22;53067;48.114;11.694;2022-12-10T02:51:16;3.80;85.70
16503;DHT22;53067;48.114;11.694;2022-12-10T02:53:45;3.80;85.50
16503;DHT22;53067;48.114;11.694;2022-12-10T02:56:24;3.80;85.50
16503;DHT22;53067;48.114;11.694;2022-12-10T03:02:04;3.80;85.30
16503;DHT22;53067;48.114;11.694;2022-12-10T03:04:39;3.80;85.40
16503;DHT22;53067;48.114;11.694;2022-12-10T03:07:10;3.80;85.40
16503;DHT22;53067;48.114;11.694;2022-12-10T03:09:43;3.80;85.50
16503;DHT22;53067;48.114;11.694;2022-12-10T03:12:25;3.80;85.50
16503;DHT22;53067;48.114;11.694;2022-12-10T03:14:48;3.80;85.50
16503;DHT22;53067;48.114;11.694;2022-12-10T03:17:17;3.80;86.20
16503;DHT22;53067;48.114;11.694;2022-12-10T03:19:48;3.80;85.50
16503;DHT22;53067;48.114;11.694;2022-12-10T03:22:18;3.80;85.10
16503;DHT22;53067;48.114;11.694;2022-12-10T03:24:47;3.80;85.20
16503;DHT22;53067;48.114;11.694;2022-12-10T03:27:17;3.80;85.10
16503;DHT22;53067;48.114;11.694;2022-12-10T03:29:48;3.80;85.20
16503;DHT22;53067;48.114;11.694;2022-12-10T03:32:18;3.80;85.20
16503;DHT22;53067;48.114;11.694;2022-12-10T03:34:47;3.80;85.20
16503;DHT22;53067;48.114;11.694;2022-12-10T03:37:15;3.80;85.20
16503;DHT22;53067;48.114;11.694;2022-12-10T03:39:43;3.70;85.20
16503;DHT22;53067;48.114;11.694;2022-12-10T03:42:10;3.70;85.40
16503;DHT22;53067;48.114;11.694;2022-12-10T03:44:39;3.70;85.40
16503;DHT22;53067;48.114;11.694;2022-12-10T03:47:12;3.70;85.40
16503;DHT22;53067;48.114;11.694;2022-12-10T03:49:41;3.70;85.40
16503;DHT22;53067;48.114;11.694;2022-12-10T03:52:09;3.70;85.40
16503;DHT22;53067;48.114;11.694;2022-12-10T03:54:37;3.70;85.40
16503;DHT22;53067;48.114;11.694;2022-12-10T03:57:05;3.70;85.40
16503;DHT22;53067;48.114;11.694;2022-12-10T03:59:32;3.70;85.50
16503;DHT22;53067;48.114;11.694;2022-12-10T04:02:00;3.70;85.50
16503;DHT22;53067;48.114;11.694;2022-12-10T04:04:28;3.70;85.50
16503;DHT22;53067;48.114;11.694;2022-12-10T04:06:55;3.70;85.30
16503;DHT22;53067;48.114;11.694;2022-12-10T04:09:23;3.70;85.30
16503;DHT22;53067;48.114;11.694;2022-12-10T04:11:54;3.70;85.40
16503;DHT22;53067;48.114;11.694;2022-12-10T04:14:19;3.70;85.50
16503;DHT22;53067;48.114;11.694;2022-12-10T04:17:05;3.70;85.50
16503;DHT22;53067;48.114;11.694;2022-12-10T04:19:32;3.70;85.60
16503;DHT22;53067;48.114;11.694;2022-12-10T04:22:00;3.70;85.60
16503;DHT22;53067;48.114;11.694;2022-12-10T04:24:45;3.70;85.60
16503;DHT22;53067;48.114;11.694;2022-12-10T04:27:33;3.70;85.60
16503;DHT22;53067;48.114;11.694;2022-12-10T04:30:02;3.70;85.50
16503;DHT22;53067;48.114;11.694;2022-12-10T04:32:30;3.70;85.40
16503;DHT22;53067;48.114;11.694;2022-12-10T04:34:58;3.70;85.50
16503;DHT22;53067;48.114;11.694;2022-12-10T04:37:27;3.70;85.30
16503;DHT22;53067;48.114;11.694;2022-12-10T04:39:55;3.70;85.30
16503;DHT22;53067;48.114;11.694;2022-12-10T04:42:23;3.70;85.30
16503;DHT22;53067;48.114;11.694;2022-12-10T04:44:51;3.70;85.40
16503;DHT22;53067;48.114;11.694;2022-12-10T04:47:18;3.70;85.40
16503;DHT22;53067;48.114;11.694;2022-12-10T04:49:46;3.70;85.40
16503;DHT22;53067;48.114;11.694;2022-12-10T04:52:15;3.70;85.40
16503;DHT22;53067;48.114;11.694;2022-12-10T04:54:43;3.70;85.30
16503;DHT22;53067;48.114;11.694;2022-12-10T04:57:12;3.70;85.30
16503;DHT22;53067;48.114;11.694;2022-12-10T04:59:40;3.70;85.40
16503;DHT22;53067;48.114;11.694;2022-12-10T05:02:08;3.60;85.30
16503;DHT22;53067;48.114;11.694;2022-12-10T05:04:35;3.60;85.40
16503;DHT22;53067;48.114;11.694;2022-12-10T05:07:03;3.70;85.40
16503;DHT22;53067;48.114;11.694;2022-12-10T05:09:31;3.70;85.40
16503;DHT22;53067;48.114;11.694;2022-12-10T05:11:58;3.70;85.30
16503;DHT22;53067;48.114;11.694;2022-12-10T05:14:26;3.70;85.30
16503;DHT22;53067;48.114;11.694;2022-12-10T05:16:53;3.70;85.20
16503;DHT22;53067;48.114;11.694;2022-12-10T05:19:21;3.70;85.00
16503;DHT22;53067;48.114;11.694;2022-12-10T05:21:50;3.70;85.00
16503;DHT22;53067;48.114;11.694;2022-12-10T05:24:36;3.70;85.20
16503;DHT22;53067;48.114;11.694;2022-12-10T05:27:04;3.70;84.90
16503;DHT22;53067;48.114;11.694;2022-12-10T05:29:32;3.70;84.80
16503;DHT22;53067;48.114;11.694;2022-12-10T05:32:00;3.70;84.70
16503;DHT22;53067;48.114;11.694;2022-12-10T05:34:28;3.70;84.60
16503;DHT22;53067;48.114;11.694;2022-12-10T05:36:55;3.70;84.60
16503;DHT22;53067;48.114;11.694;2022-12-10T05:39:23;3.70;84.40
16503;DHT22;53067;48.114;11.694;2022-12-10T05:41:50;3.70;84.30
16503;DHT22;53067;48.114;11.694;2022-12-10T05:44:18;3.70;84.90
16503;DHT22;53067;48.114;11.694;2022-12-10T05:46:45;3.70;84.00
16503;DHT22;53067;48.114;11.694;2022-12-10T05:49:13;3.80;84.20
16503;DHT22;53067;48.114;11.694;2022-12-10T05:51:40;3.70;84.10
16503;DHT22;53067;48.114;11.694;2022-12-10T05:54:09;3.80;84.10
16503;DHT22;53067;48.114;11.694;2022-12-10T05:56:37;3.80;84.10
16503;DHT22;53067;48.114;11.694;2022-12-10T05:59:05;3.80;84.20
16503;DHT22;53067;48.114;11.694;2022-12-10T06:01:34;3.80;83.60
16503;DHT22;53067;48.114;11.694;2022-12-10T06:04:04;3.80;84.00
16503;DHT22;53067;48.114;11.694;2022-12-10T06:06:35;3.80;84.00
16503;DHT22;53067;48.114;11.694;2022-12-10T06:09:03;3.80;84.00
16503;DHT22;53067;48.114;11.694;2022-12-10T06:11:31;3.80;83.90
16503;DHT22;53067;48.114;11.694;2022-12-10T06:13:59;3.80;83.90
16503;DHT22;53067;48.114;11.694;2022-12-10T06:16:28;3.80;83.90
16503;DHT22;53067;48.114;11.694;2022-12-10T06:18:57;3.80;83.80
16503;DHT22;53067;48.114;11.694;2022-12-10T06:21:25;3.80;84.50
16503;DHT22;53067;48.114;11.694;2022-12-10T06:23:52;3.70;83.80
16503;DHT22;53067;48.114;11.694;2022-12-10T06:26:22;3.70;83.70
16503;DHT22;53067;48.114;11.694;2022-12-10T06:28:52;3.80;83.90
16503;DHT22;53067;48.114;11.694;2022-12-10T06:31:20;3.80;84.00
16503;DHT22;53067;48.114;11.694;2022-12-10T06:33:48;3.80;83.90
16503;DHT22;53067;48.114;11.694;2022-12-10T06:36:18;3.80;84.90
16503;DHT22;53067;48.114;11.694;2022-12-10T06:38:45;3.80;84.00
16503;DHT22;53067;48.114;11.694;2022-12-10T06:41:15;3.80;83.80
16503;DHT22;53067;48.114;11.694;2022-12-10T06:43:43;3.80;83.70
16503;DHT22;53067;48.114;11.694;2022-12-10T06:46:12;3.70;83.70
16503;DHT22;53067;48.114;11.694;2022-12-10T06:48:41;3.70;83.80
16503;DHT22;53067;48.114;11.694;2022-12-10T06:51:10;3.70;83.90
16503;DHT22;53067;48.114;11.694;2022-12-10T06:53:38;3.70;83.90
16503;DHT22;53067;48.114;11.694;2022-12-10T06:56:07;3.70;83.90
16503;DHT22;53067;48.114;11.694;2022-12-10T06:58:35;3.70;84.00
16503;DHT22;53067;48.114;11.694;2022-12-10T07:01:09;3.70;83.90
16503;DHT22;53067;48.114;11.694;2022-12-10T07:03:37;3.70;83.70
16503;DHT22;53067;48.114;11.694;2022-12-10T07:06:06;3.70;83.60
16503;DHT22;53067;48.114;11.694;2022-12-10T07:08:35;3.70;83.70
16503;DHT22;53067;48.114;11.694;2022-12-10T07:11:08;3.70;83.50
16503;DHT22;53067;48.114;11.694;2022-12-10T07:13:36;3.60;83.70
16503;DHT22;53067;48.114;11.694;2022-12-10T07:16:19;3.60;83.60
16503;DHT22;53067;48.114;11.694;2022-12-10T07:18:47;3.60;83.70
16503;DHT22;53067;48.114;11.694;2022-12-10T07:23:54;3.60;84.00
16503;DHT22;53067;48.114;11.694;2022-12-10T07:26:31;3.60;83.90
16503;DHT22;53067;48.114;11.694;2022-12-10T07:29:00;3.60;84.10
16503;DHT22;53067;48.114;11.694;2022-12-10T07:31:28;3.60;83.90
16503;DHT22;53067;48.114;11.694;2022-12-10T07:33:58;3.60;83.90
16503;DHT22;53067;48.114;11.694;2022-12-10T07:36:27;3.60;83.80
16503;DHT22;53067;48.114;11.694;2022-12-10T07:38:55;3.60;83.80
16503;DHT22;53067;48.114;11.694;2022-12-10T07:41:24;3.60;83.70
16503;DHT22;53067;48.114;11.694;2022-12-10T07:43:52;3.60;83.60
16503;DHT22;53067;48.114;11.694;2022-12-10T07:46:30;3.60;83.80
16503;DHT22;53067;48.114;11.694;2022-12-10T07:48:53;3.70;83.70
16503;DHT22;53067;48.114;11.694;2022-12-10T07:51:22;3.70;83.70
16503;DHT22;53067;48.114;11.694;2022-12-10T07:53:53;3.70;83.70
16503;DHT22;53067;48.114;11.694;2022-12-10T07:56:22;3.70;83.90
16503;DHT22;53067;48.114;11.694;2022-12-10T07:58:51;3.70;83.70
16503;DHT22;53067;48.114;11.694;2022-12-10T08:01:22;3.70;83.60
16503;DHT22;53067;48.114;11.694;2022-12-10T08:03:51;3.70;83.60
16503;DHT22;53067;48.114;11.694;2022-12-10T08:06:20;3.70;83.60
16503;DHT22;53067;48.114;11.694;2022-12-10T08:08:49;3.70;83.40
16503;DHT22;53067;48.114;11.694;2022-12-10T08:11:20;3.70;84.20
16503;DHT22;53067;48.114;11.694;2022-12-10T08:13:49;3.70;83.10
16503;DHT22;53067;48.114;11.694;2022-12-10T08:16:20;3.70;83.40
16503;DHT22;53067;48.114;11.694;2022-12-10T08:18:49;3.80;83.30
16503;DHT22;53067;48.114;11.694;2022-12-10T08:21:19;3.80;83.40
16503;DHT22;53067;48.114;11.694;2022-12-10T08:23:48;3.80;83.30
16503;DHT22;53067;48.114;11.694;2022-12-10T08:26:18;3.80;83.20
16503;DHT22;53067;48.114;11.694;2022-12-10T08:28:47;3.80;83.30
16503;DHT22;53067;48.114;11.694;2022-12-10T08:31:17;3.80;83.50
16503;DHT22;53067;48.114;11.694;2022-12-10T08:33:45;3.80;83.40
16503;DHT22;53067;48.114;11.694;2022-12-10T08:36:14;3.80;83.20
16503;DHT22;53067;48.114;11.694;2022-12-10T08:38:43;3.90;82.90
16503;DHT22;53067;48.114;11.694;2022-12-10T08:41:14;3.90;83.10
16503;DHT22;53067;48.114;11.694;2022-12-10T08:43:41;3.90;83.10
16503;DHT22;53067;48.114;11.694;2022-12-10T08:46:10;3.90;83.20
16503;DHT22;53067;48.114;11.694;2022-12-10T08:48:39;3.90;83.20
16503;DHT22;53067;48.114;11.694;2022-12-10T08:51:08;4.00;83.00
16503;DHT22;53067;48.114;11.694;2022-12-10T08:53:36;4.00;82.90
16503;DHT22;53067;48.114;11.694;2022-12-10T08:56:04;4.00;82.60
16503;DHT22;53067;48.114;11.694;2022-12-10T08:58:31;4.00;82.60
16503;DHT22;53067;48.114;11.694;2022-12-10T09:01:00;4.10;82.50
16503;DHT22;53067;48.114;11.694;2022-12-10T09:03:29;4.00;82.40
16503;DHT22;53067;48.114;11.694;2022-12-10T09:05:56;4.10;82.50
16503;DHT22;53067;48.114;11.694;2022-12-10T09:08:24;4.00;82.50
16503;DHT22;53067;48.114;11.694;2022-12-10T09:10:51;4.00;82.30
16503;DHT22;53067;48.114;11.694;2022-12-10T09:13:19;4.00;82.40
16503;DHT22;53067;48.114;11.694;2022-12-10T09:15:51;4.00;82.50
16503;DHT22;53067;48.114;11.694;2022-12-10T09:18:19;4.10;82.50
16503;DHT22;53067;48.114;11.694;2022-12-10T09:20:46;4.10;82.50
16503;DHT22;53067;48.114;11.694;2022-12-10T09:23:14;4.00;82.40
16503;DHT22;53067;48.114;11.694;2022-12-10T09:25:41;4.00;82.50
16503;DHT22;53067;48.114;11.694;2022-12-10T09:28:09;4.10;82.60
16503;DHT22;53067;48.114;11.694;2022-12-10T09:30:36;4.10;82.70
16503;DHT22;53067;48.114;11.694;2022-12-10T09:33:05;4.10;82.90
16503;DHT22;53067;48.114;11.694;2022-12-10T09:35:32;4.00;82.80
16503;DHT22;53067;48.114;11.694;2022-12-10T09:38:00;4.10;82.90
16503;DHT22;53067;48.114;11.694;2022-12-10T09:40:35;4.10;82.70
16503;DHT22;53067;48.114;11.694;2022-12-10T09:51:25;4.00;82.70
16503;DHT22;53067;48.114;11.694;2022-12-10T09:53:56;4.00;82.80
16503;DHT22;53067;48.114;11.694;2022-12-10T09:56:32;3.90;83.10
16503;DHT22;53067;48.114;11.694;2022-12-10T09:59:02;4.00;83.00
16503;DHT22;53067;48.114;11.694;2022-12-10T10:01:31;4.00;83.20
16503;DHT22;53067;48.114;11.694;2022-12-10T10:03:59;3.90;83.20
16503;DHT22;53067;48.114;11.694;2022-12-10T10:06:28;4.00;83.20
16503;DHT22;53067;48.114;11.694;2022-12-10T10:08:58;4.00;83.00
16503;DHT22;53067;48.114;11.694;2022-12-10T10:11:33;4.00;83.00
16503;DHT22;53067;48.114;11.694;2022-12-10T10:14:12;4.00;83.00
16503;DHT22;53067;48.114;11.694;2022-12-10T10:16:47;4.00;83.10
16503;DHT22;53067;48.114;11.694;2022-12-10T10:19:16;4.00;83.00
16503;DHT22;53067;48.114;11.694;2022-12-10T10:21:46;4.00;83.20
16503;DHT22;53067;48.114;11.694;2022-12-10T10:24:16;3.90;83.40
16503;DHT22;53067;48.114;11.694;2022-12-10T10:26:45;4.00;83.20
16503;DHT22;53067;48.114;11.694;2022-12-10T10:29:22;3.90;83.10
16503;DHT22;53067;48.114;11.694;2022-12-10T10:34:40;3.90;83.20
16503;DHT22;53067;48.114;11.694;2022-12-10T10:37:16;3.90;83.30
16503;DHT22;53067;48.114;11.694;2022-12-10T10:39:46;3.90;83.20
16503;DHT22;53067;48.114;11.694;2022-12-10T10:42:21;3.90;83.30
16503;DHT22;53067;48.114;11.694;2022-12-10T10:44:45;3.90;83.30
16503;DHT22;53067;48.114;11.694;2022-12-10T10:47:34;4.00;83.20
16503;DHT22;53067;48.114;11.694;2022-12-10T10:50:04;4.00;83.30
16503;DHT22;53067;48.114;11.694;2022-12-10T10:52:37;3.90;83.30
16503;DHT22;53067;48.114;11.694;2022-12-10T10:55:09;3.90;83.50
16503;DHT22;53067;48.114;11.694;2022-12-10T10:57:36;4.00;83.50
16503;DHT22;53067;48.114;11.694;2022-12-10T11:02:49;4.00;83.20
16503;DHT22;53067;48.114;11.694;2022-12-10T11:05:30;4.00;83.30
16503;DHT22;53067;48.114;11.694;2022-12-10T11:08:13;4.00;83.40
16503;DHT22;53067;48.114;11.694;2022-12-10T11:10:46;4.00;83.50
16503;DHT22;53067;48.114;11.694;2022-12-10T11:13:29;4.00;83.60
16503;DHT22;53067;48.114;11.694;2022-12-10T11:15:41;4.00;83.40
16503;DHT22;53067;48.114;11.694;2022-12-10T11:21:15;4.10;83.20
16503;DHT22;53067;48.114;11.694;2022-12-10T11:23:41;4.10;83.20
16503;DHT22;53067;48.114;11.694;2022-12-10T11:26:30;4.10;83.60
16503;DHT22;53067;48.114;11.694;2022-12-10T11:32:19;4.10;83.30
16503;DHT22;53067;48.114;11.694;2022-12-10T11:38:15;4.10;83.40
16503;DHT22;53067;48.114;11.694;2022-12-10T11:41:01;4.10;83.60
16503;DHT22;53067;48.114;11.694;2022-12-10T11:49:22;4.10;83.60
16503;DHT22;53067;48.114;11.694;2022-12-10T11:57:40;4.00;83.70
16503;DHT22;53067;48.114;11.694;2022-12-10T12:00:27;4.00;83.60
16503;DHT22;53067;48.114;11.694;2022-12-10T12:11:03;4.10;83.30
16503;DHT22;53067;48.114;11.694;2022-12-10T12:16:29;4.10;83.60
16503;DHT22;53067;48.114;11.694;2022-12-10T12:19:17;4.10;83.90
16503;DHT22;53067;48.114;11.694;2022-12-10T12:21:47;4.10;83.60
16503;DHT22;53067;48.114;11.694;2022-12-10T12:24:20;4.10;83.60
16503;DHT22;53067;48.114;11.694;2022-12-10T12:27:00;4.10;83.40
16503;DHT22;53067;48.114;11.694;2022-12-10T12:29:33;4.10;83.60
16503;DHT22;53067;48.114;11.694;2022-12-10T12:32:17;4.10;83.60
16503;DHT22;53067;48.114;11.694;2022-12-10T12:37:34;4.10;83.80
16503;DHT22;53067;48.114;11.694;2022-12-10T12:42:55;4.00;83.30
16503;DHT22;53067;48.114;11.694;2022-12-10T12:45:40;4.10;83.50
16503;DHT22;53067;48.114;11.694;2022-12-10T12:50:47;4.10;83.70
16503;DHT22;53067;48.114;11.694;2022-12-10T12:53:20;4.10;83.70
16503;DHT22;53067;48.114;11.694;2022-12-10T12:56:02;4.10;83.60
16503;DHT22;53067;48.114;11.694;2022-12-10T13:03:54;4.10;83.40
16503;DHT22;53067;48.114;11.694;2022-12-10T13:06:29;4.10;83.60
16503;DHT22;53067;48.114;11.694;2022-12-10T13:11:45;4.10;83.50
16503;DHT22;53067;48.114;11.694;2022-12-10T13:14:16;4.10;83.60
16503;DHT22;53067;48.114;11.694;2022-12-10T13:16:55;4.10;83.50
16503;DHT22;53067;48.114;11.694;2022-12-10T13:22:01;4.00;83.10
16503;DHT22;53067;48.114;11.694;2022-12-10T13:29:46;4.00;83.40
16503;DHT22;53067;48.114;11.694;2022-12-10T13:43:38;3.80;83.50
16503;DHT22;53067;48.114;11.694;2022-12-10T13:46:32;3.80;83.90
16503;DHT22;53067;48.114;11.694;2022-12-10T13:49:03;3.80;84.20
16503;DHT22;53067;48.114;11.694;2022-12-10T13:57:53;3.90;84.20
16503;DHT22;53067;48.114;11.694;2022-12-10T14:00:23;3.90;84.20
16503;DHT22;53067;48.114;11.694;2022-12-10T14:06:14;3.80;84.00
16503;DHT22;53067;48.114;11.694;2022-12-10T14:09:04;3.80;84.20
16503;DHT22;53067;48.114;11.694;2022-12-10T14:11:37;3.80;84.30
16503;DHT22;53067;48.114;11.694;2022-12-10T14:14:10;3.80;84.40
16503;DHT22;53067;48.114;11.694;2022-12-10T14:16:36;3.80;84.50
16503;DHT22;53067;48.114;11.694;2022-12-10T14:19:07;3.80;84.70
16503;DHT22;53067;48.114;11.694;2022-12-10T14:21:37;3.80;84.70
16503;DHT22;53067;48.114;11.694;2022-12-10T14:24:06;3.80;84.70
16503;DHT22;53067;48.114;11.694;2022-12-10T14:26:36;3.80;84.70
16503;DHT22;53067;48.114;11.694;2022-12-10T14:31:41;3.90;84.50
16503;DHT22;53067;48.114;11.694;2022-12-10T14:34:11;3.90;84.40
16503;DHT22;53067;48.114;11.694;2022-12-10T14:36:43;3.90;84.60
16503;DHT22;53067;48.114;11.694;2022-12-10T14:39:26;3.90;84.60
16503;DHT22;53067;48.114;11.694;2022-12-10T14:41:52;3.90;84.50
16503;DHT22;53067;48.114;11.694;2022-12-10T14:44:20;3.90;85.10
16503;DHT22;53067;48.114;11.694;2022-12-10T14:46:49;3.90;84.40
16503;DHT22;53067;48.114;11.694;2022-12-10T14:49:23;3.80;84.50
16503;DHT22;53067;48.114;11.694;2022-12-10T14:51:51;3.80;84.50
16503;DHT22;53067;48.114;11.694;2022-12-10T14:54:32;3.80;84.60
16503;DHT22;53067;48.114;11.694;2022-12-10T14:56:56;3.80;84.50
16503;DHT22;53067;48.114;11.694;2022-12-10T14:59:41;3.70;84.60
16503;DHT22;53067;48.114;11.694;2022-12-10T15:02:21;3.70;84.40
16503;DHT22;53067;48.114;11.694;2022-12-10T15:04:49;3.70;84.40
16503;DHT22;53067;48.114;11.694;2022-12-10T15:07:23;3.60;84.60
16503;DHT22;53067;48.114;11.694;2022-12-10T15:09:49;3.60;84.80
16503;DHT22;53067;48.114;11.694;2022-12-10T15:12:20;3.60;85.00
16503;DHT22;53067;48.114;11.694;2022-12-10T15:14:48;3.60;85.00
16503;DHT22;53067;48.114;11.694;2022-12-10T15:17:35;3.60;85.00
16503;DHT22;53067;48.114;11.694;2022-12-10T15:20:22;3.60;85.00
16503;DHT22;53067;48.114;11.694;2022-12-10T15:22:49;3.60;84.90
16503;DHT22;53067;48.114;11.694;2022-12-10T15:25:26;3.60;84.80
16503;DHT22;53067;48.114;11.694;2022-12-10T15:27:57;3.50;84.90
16503;DHT22;53067;48.114;11.694;2022-12-10T15:30:40;3.50;84.90
16503;DHT22;53067;48.114;11.694;2022-12-10T15:33:17;3.60;85.00
16503;DHT22;53067;48.114;11.694;2022-12-10T15:35:36;3.60;84.70
16503;DHT22;53067;48.114;11.694;2022-12-10T15:38:03;3.50;84.70
16503;DHT22;53067;48.114;11.694;2022-12-10T15:40:31;3.50;84.80
16503;DHT22;53067;48.114;11.694;2022-12-10T15:43:29;3.50;84.60
16503;DHT22;53067;48.114;11.694;2022-12-10T15:45:58;3.60;84.90
16503;DHT22;53067;48.114;11.694;2022-12-10T15:48:29;3.60;84.90
16503;DHT22;53067;48.114;11.694;2022-12-10T15:50:56;3.60;84.90
16503;DHT22;53067;48.114;11.694;2022-12-10T15:53:27;3.60;85.00
16503;DHT22;53067;48.114;11.694;2022-12-10T15:55:55;3.60;84.80
16503;DHT22;53067;48.114;11.694;2022-12-10T15:58:22;3.60;84.80
16503;DHT22;53067;48.114;11.694;2022-12-10T16:00:50;3.50;84.90
16503;DHT22;53067;48.114;11.694;2022-12-10T16:03:17;3.50;84.90
16503;DHT22;53067;48.114;11.694;2022-12-10T16:05:47;3.60;84.80
16503;DHT22;53067;48.114;11.694;2022-12-10T16:08:27;3.50;84.70
16503;DHT22;53067;48.114;11.694;2022-12-10T16:10:53;3.50;84.90
16503;DHT22;53067;48.114;11.694;2022-12-10T16:13:31;3.50;84.80
16503;DHT22;53067;48.114;11.694;2022-12-10T16:15:57;3.50;84.70
16503;DHT22;53067;48.114;11.694;2022-12-10T16:18:25;3.50;84.80
16503;DHT22;53067;48.114;11.694;2022-12-10T16:20:52;3.50;85.20
16503;DHT22;53067;48.114;11.694;2022-12-10T16:23:20;3.50;85.00
16503;DHT22;53067;48.114;11.694;2022-12-10T16:25:47;3.50;85.00
16503;DHT22;53067;48.114;11.694;2022-12-10T16:28:17;3.50;84.70
16503;DHT22;53067;48.114;11.694;2022-12-10T16:30:47;3.40;83.90
16503;DHT22;53067;48.114;11.694;2022-12-10T16:33:18;3.40;83.70
16503;DHT22;53067;48.114;11.694;2022-12-10T16:35:47;3.30;84.00
16503;DHT22;53067;48.114;11.694;2022-12-10T16:38:15;3.30;84.30
16503;DHT22;53067;48.114;11.694;2022-12-10T16:40:44;3.40;84.10
16503;DHT22;53067;48.114;11.694;2022-12-10T16:43:18;3.40;84.00
16503;DHT22;53067;48.114;11.694;2022-12-10T16:45:45;3.40;84.00
16503;DHT22;53067;48.114;11.694;2022-12-10T16:48:13;3.40;83.70
16503;DHT22;53067;48.114;11.694;2022-12-10T16:50:41;3.30;83.70
16503;DHT22;53067;48.114;11.694;2022-12-10T16:53:18;3.30;83.60
16503;DHT22;53067;48.114;11.694;2022-12-10T16:55:48;3.30;83.70
16503;DHT22;53067;48.114;11.694;2022-12-10T16:58:15;3.30;83.70
16503;DHT22;53067;48.114;11.694;2022-12-10T17:00:48;3.30;83.60
16503;DHT22;53067;48.114;11.694;2022-12-10T17:03:18;3.30;83.40
16503;DHT22;53067;48.114;11.694;2022-12-10T17:05:53;3.30;83.50
16503;DHT22;53067;48.114;11.694;2022-12-10T17:08:22;3.30;83.30
16503;DHT22;53067;48.114;11.694;2022-12-10T17:10:51;3.20;82.70
16503;DHT22;53067;48.114;11.694;2022-12-10T17:13:38;3.20;82.10
16503;DHT22;53067;48.114;11.694;2022-12-10T17:16:09;3.10;82.40
16503;DHT22;53067;48.114;11.694;2022-12-10T17:18:36;3.10;82.50
16503;DHT22;53067;48.114;11.694;2022-12-10T17:21:03;3.10;82.70
16503;DHT22;53067;48.114;11.694;2022-12-10T17:23:31;3.00;82.50
16503;DHT22;53067;48.114;11.694;2022-12-10T17:25:59;3.00;82.90
16503;DHT22;53067;48.114;11.694;2022-12-10T17:28:27;3.00;82.60
16503;DHT22;53067;48.114;11.694;2022-12-10T17:30:57;3.00;82.90
16503;DHT22;53067;48.114;11.694;2022-12-10T17:33:25;2.90;82.50
16503;DHT22;53067;48.114;11.694;2022-12-10T17:35:53;2.90;82.80
16503;DHT22;53067;48.114;11.694;2022-12-10T17:38:23;2.90;83.00
16503;DHT22;53067;48.114;11.694;2022-12-10T17:40:51;2.90;82.80
16503;DHT22;53067;48.114;11.694;2022-12-10T17:43:21;2.80;82.40
16503;DHT22;53067;48.114;11.694;2022-12-10T17:45:51;2.70;82.70